Terminal Aerodrome Forecast
Issued by NWS

Home | Current Version | Previous Version | Text Only | Print | Product List | Glossary Off
Versions: 1 2 3 4 5 6 7 8 9 10 11 12 13 14 15 16 17 18 19 20 21 22 23

000
FTUS43 KTOP 260520
TAFMHK
TAF
KMHK 260520Z 2606/2706 10005KT P6SM SCT060
     FM260900 10003KT 5SM BR BKN012
     FM261100 10005KT 4SM BR VCTS BKN015 OVC040CB
     FM261400 12011KT 5SM BR BKN020
     FM261800 13014G21KT P6SM SCT030
     FM270100 15012KT P6SM VCTS BKN035CB=

USA.gov is the U.S. government's official web portal to all federal, state and local government web resources and services.